Home   Weather   New Zealand   Wellington   Past weeks
Flag for New Zealand

Past Weather in Wellington, New Zealand — Yesterday and Last 2 Weeks

Currently: 54 °F. Cool. (Weather station: Wellington Airport, New Zealand). See more current weather

Past Weather in Wellington — Graph

°F

Wellington Temperature Yesterday

Maximum temperature yesterday: 61 °F (at 1:30 pm)
Minimum temperature yesterday: 43 °F (at 3:00 am)
Average temperature yesterday: 51 °F

High & Low Weather Summary for the Past Weeks

 TemperatureHumidityPressure
High61 °F (Jul 25, 1:30 pm)100% (Jul 12, 6:00 am)30.27 "Hg (Jul 12, 6:00 am)
Low36 °F (Jul 13, 1:00 am)48% (Jul 25, 3:00 pm)28.97 "Hg (Jul 17, 10:00 pm)
Average52 °F80%29.79 "Hg
* Reported Jul 11 12:00 am — Jul 26 12:30 am, Wellington. Weather by CustomWeather, © 2021

Note: Actual official high and low records may vary slightly from our data, if they occured in-between our weather recording intervals... More about our weather records

Wellington Weather History for the Previous 24 Hours

Scroll right to see more
 ConditionsComfort  
Time TempWeatherWind HumidityBarometerVisibility
12:30 am
Mon, Jul 26
54 °FCool.12 mph67%29.83 "HgN/A
12:00 am54 °FCool.10 mph67%29.83 "HgN/A
11:30 pm
Sun, Jul 25
54 °FPassing clouds.10 mph67%29.86 "HgN/A
11:00 pm52 °FMostly cloudy.6 mph72%29.86 "HgN/A
10:30 pm52 °FMostly cloudy.8 mph72%29.89 "HgN/A
10:00 pm52 °FOvercast.5 mph72%29.89 "HgN/A
9:30 pm52 °FPassing clouds.7 mph72%29.92 "HgN/A
9:00 pm52 °FOvercast.8 mph77%29.92 "HgN/A
8:30 pm52 °FOvercast.9 mph72%29.92 "HgN/A
8:00 pm54 °FPassing clouds.7 mph63%29.92 "HgN/A
7:30 pm54 °FPassing clouds.7 mph67%29.95 "HgN/A
7:00 pm52 °FPassing clouds.8 mph72%29.95 "HgN/A
6:30 pm52 °FPassing clouds.10 mph72%29.95 "HgN/A
6:00 pm52 °FCool.9 mph72%29.95 "HgN/A
5:30 pm54 °FCool.10 mph67%29.95 "HgN/A
5:00 pm54 °FCool.12 mph72%29.98 "HgN/A
4:30 pm55 °FCool.10 mph67%29.98 "HgN/A
4:00 pm57 °FRefreshingly cool.12 mph55%29.98 "HgN/A
3:30 pm59 °FRefreshingly cool.10 mph48%29.98 "HgN/A
3:00 pm59 °FRefreshingly cool.13 mph48%30.01 "HgN/A
2:30 pm59 °FRefreshingly cool.12 mph51%30.01 "HgN/A
2:00 pm59 °FRefreshingly cool.13 mph51%30.04 "HgN/A
1:30 pm61 °FRefreshingly cool.13 mph52%30.04 "HgN/A
1:00 pm59 °FRefreshingly cool.12 mph55%30.07 "HgN/A
12:30 pm59 °FRefreshingly cool.10 mph59%30.07 "HgN/A
12:00 pm59 °FRefreshingly cool.13 mph55%30.09 "HgN/A
11:30 am57 °FCool.13 mph63%30.09 "HgN/A
11:00 am57 °FCool.12 mph63%30.12 "HgN/A
10:30 am55 °FCool.12 mph67%30.12 "HgN/A
10:00 am54 °FCool.9 mph72%30.12 "HgN/A
9:30 am54 °FCool.10 mph67%30.12 "HgN/A
9:00 am50 °FCool.6 mph82%30.12 "HgN/A
8:30 am48 °FCool.9 mph87%30.15 "HgN/A
8:00 am46 °FCool.8 mph87%30.15 "HgN/A
7:30 am45 °FQuite cool.8 mph87%30.15 "HgN/A
7:00 am46 °FCool.7 mph82%30.15 "HgN/A
6:30 am45 °FPassing clouds.6 mph87%30.15 "HgN/A
6:00 am45 °FPassing clouds.6 mph93%30.15 "HgN/A
5:30 am43 °FPassing clouds.5 mph93%30.15 "HgN/A
5:00 am45 °FQuite cool.5 mph93%30.15 "HgN/A
4:30 am45 °FPassing clouds.2 mph93%30.18 "HgN/A
4:00 am45 °FPassing clouds.3 mph93%30.18 "HgN/A
3:30 am43 °FQuite cool.3 mph93%30.18 "HgN/A
3:00 am43 °FPassing clouds.5 mph93%30.18 "HgN/A
2:30 am45 °FPassing clouds.3 mph87%30.21 "HgN/A
2:00 am45 °FPassing clouds.5 mph93%30.21 "HgN/A
Weather by CustomWeather, © 2021

See weather overview